Time;durP1;ratioP1;P1;durP2;ratioP2;P2;SDS_P1;SDS_P2;PMS_P1;PMS_P2;Temp;Humidity;BMP_temperature;BMP_pressure;BME280_temperature;BME280_humidity;BME280_pressure;Samples;Min_cycle;Max_cycle;Signal;HPM_P1;HPM_P2
2021/06/28 00:00:00;;;;;;;10.77;8.35;;;;;;;;;;5095161;28;20024;-73
2021/06/28 00:02:29;;;;;;;7.85;7.05;;;;;;;;;;5095948;28;20110;-73
2021/06/28 00:04:56;;;;;;;8.00;7.40;;;;;;;;;;5095429;28;20124;-73
2021/06/28 00:07:22;;;;;;;19.70;7.93;;;;;;;;;;5095091;28;20020;-73
2021/06/28 00:09:48;;;;;;;9.75;8.93;;;;;;;;;;5094049;28;20060;-73
2021/06/28 00:12:14;;;;;;;9.20;8.30;;;;;;;;;;5094993;28;20020;-73
2021/06/28 00:14:40;;;;;;;7.57;6.88;;;;;;;;;;5095293;28;20047;-73
2021/06/28 00:17:06;;;;;;;8.80;7.93;;;;;;;;;;5095153;28;20466;-73
2021/06/28 00:19:32;;;;;;;7.60;6.90;;;;;;;;;;5095423;28;20518;-73
2021/06/28 00:21:58;;;;;;;7.30;6.75;;;;;;;;;;5095428;28;20035;-73
2021/06/28 00:24:25;;;;;;;10.25;7.32;;;;;;;;;;5095303;28;20024;-73
2021/06/28 00:26:52;;;;;;;8.80;8.10;;;;;;;;;;5094847;28;20480;-74
2021/06/28 00:29:18;;;;;;;8.48;7.75;;;;;;;;;;5094514;28;20548;-73
2021/06/28 00:31:46;;;;;;;8.00;6.90;;;;;;;;;;5095189;28;20035;-73
2021/06/28 00:34:12;;;;;;;10.13;7.15;;;;;;;;;;5095314;28;20031;-73
2021/06/28 00:36:38;;;;;;;7.55;6.85;;;;;;;;;;5094855;28;20194;-72
2021/06/28 00:39:04;;;;;;;10.40;7.30;;;;;;;;;;5094906;28;20028;-74
2021/06/28 00:41:30;;;;;;;8.25;7.45;;;;;;;;;;5094765;28;20074;-73
2021/06/28 00:43:56;;;;;;;7.85;7.15;;;;;;;;;;5094840;28;20020;-73
2021/06/28 00:46:22;;;;;;;8.07;7.38;;;;;;;;;;5094989;28;20028;-73
2021/06/28 00:48:49;;;;;;;8.38;6.80;;;;;;;;;;5094665;28;20027;-73
2021/06/28 00:51:15;;;;;;;8.57;7.22;;;;;;;;;;5094123;28;20044;-73
2021/06/28 00:53:41;;;;;;;8.27;7.57;;;;;;;;;;5094443;28;20111;-74
2021/06/28 00:56:10;;;;;;;9.73;7.43;;;;;;;;;;5094260;28;20036;-74
2021/06/28 00:58:37;;;;;;;7.75;6.88;;;;;;;;;;5094243;28;20023;-73
2021/06/28 01:01:04;;;;;;;7.53;6.93;;;;;;;;;;5093900;28;20474;-74
2021/06/28 01:03:30;;;;;;;8.75;8.05;;;;;;;;;;5094910;28;20127;-73
2021/06/28 01:05:56;;;;;;;9.52;8.65;;;;;;;;;;5094538;28;20031;-73
2021/06/28 01:08:22;;;;;;;7.95;7.35;;;;;;;;;;5093986;28;20354;-73
2021/06/28 01:10:48;;;;;;;8.15;7.45;;;;;;;;;;5093848;28;20023;-73
2021/06/28 01:13:14;;;;;;;7.32;6.70;;;;;;;;;;5093607;28;20035;-73
2021/06/28 01:15:40;;;;;;;8.35;7.68;;;;;;;;;;5094091;28;20059;-73
2021/06/28 01:18:06;;;;;;;8.52;7.25;;;;;;;;;;5094326;28;20032;-73
2021/06/28 01:20:32;;;;;;;7.25;6.75;;;;;;;;;;5093429;28;20020;-73
2021/06/28 01:23:18;;;;;;;7.93;7.22;;;;;;;;;;5093915;28;20475;-74
2021/06/28 01:25:45;;;;;;;11.63;8.00;;;;;;;;;;5079084;28;20036;-73
2021/06/28 01:28:12;;;;;;;8.23;7.10;;;;;;;;;;5093928;28;20046;-73
2021/06/28 01:30:38;;;;;;;10.88;7.38;;;;;;;;;;5094107;28;20450;-73
2021/06/28 01:33:04;;;;;;;8.90;7.85;;;;;;;;;;5093690;28;20028;-74
2021/06/28 01:35:30;;;;;;;7.97;7.38;;;;;;;;;;5093895;28;20039;-73
2021/06/28 01:37:56;;;;;;;13.10;7.07;;;;;;;;;;5094019;28;20074;-73
2021/06/28 01:40:22;;;;;;;11.40;8.48;;;;;;;;;;5093772;28;20476;-73
2021/06/28 01:42:48;;;;;;;11.05;7.90;;;;;;;;;;5093944;28;20486;-73
2021/06/28 01:45:16;;;;;;;7.60;7.00;;;;;;;;;;5093562;28;20031;-72
2021/06/28 01:47:42;;;;;;;8.43;7.75;;;;;;;;;;5094062;28;20074;-73
2021/06/28 01:50:09;;;;;;;8.75;7.90;;;;;;;;;;5093619;28;20051;-73
2021/06/28 01:52:35;;;;;;;7.82;7.22;;;;;;;;;;5093489;28;20028;-73
2021/06/28 01:55:01;;;;;;;7.90;7.25;;;;;;;;;;5093073;28;20040;-74
2021/06/28 01:57:27;;;;;;;8.57;7.80;;;;;;;;;;5093617;28;20094;-73
2021/06/28 01:59:53;;;;;;;8.77;8.07;;;;;;;;;;5094203;28;20054;-73
2021/06/28 02:02:19;;;;;;;7.90;7.15;;;;;;;;;;5093528;28;20032;-73
2021/06/28 02:04:47;;;;;;;8.85;7.90;;;;;;;;;;5093394;28;20511;-73
2021/06/28 02:07:13;;;;;;;8.75;7.95;;;;;;;;;;5093108;28;20070;-74
2021/06/28 02:09:40;;;;;;;9.27;8.48;;;;;;;;;;5093343;28;20024;-73
2021/06/28 02:12:06;;;;;;;7.15;6.65;;;;;;;;;;5093480;28;20025;-73
2021/06/28 02:14:32;;;;;;;10.27;7.50;;;;;;;;;;5093406;28;20032;-73
2021/06/28 02:16:59;;;;;;;9.30;8.30;;;;;;;;;;5093290;28;20115;-74
2021/06/28 02:19:25;;;;;;;7.82;7.22;;;;;;;;;;5093206;28;20017;-73
2021/06/28 02:21:51;;;;;;;8.20;7.18;;;;;;;;;;5093378;28;20027;-74
2021/06/28 02:24:17;;;;;;;8.15;7.35;;;;;;;;;;5093210;28;20474;-73
2021/06/28 02:26:44;;;;;;;19.90;6.93;;;;;;;;;;5093417;28;20020;-73
2021/06/28 02:29:10;;;;;;;8.00;7.30;;;;;;;;;;5075379;28;20028;-74
2021/06/28 02:31:36;;;;;;;13.05;9.23;;;;;;;;;;5093342;28;20116;-73
2021/06/28 02:34:03;;;;;;;8.20;7.55;;;;;;;;;;5095972;28;20024;-73
2021/06/28 02:36:29;;;;;;;7.85;7.15;;;;;;;;;;5096888;28;20374;-74
2021/06/28 02:38:55;;;;;;;10.20;8.00;;;;;;;;;;5096855;28;20035;-73
2021/06/28 02:41:22;;;;;;;8.48;7.40;;;;;;;;;;5096713;28;20496;-73
2021/06/28 02:43:48;;;;;;;8.77;7.85;;;;;;;;;;5097437;28;20028;-73
2021/06/28 02:46:14;;;;;;;8.73;7.85;;;;;;;;;;5097418;28;20028;-72
2021/06/28 02:48:40;;;;;;;9.20;8.15;;;;;;;;;;5097144;28;20059;-73
2021/06/28 02:51:06;;;;;;;9.07;8.07;;;;;;;;;;5096933;28;20063;-74
2021/06/28 02:53:32;;;;;;;9.50;8.63;;;;;;;;;;5096736;28;20024;-73
2021/06/28 02:56:14;;;;;;;10.27;8.50;;;;;;;;;;5097167;28;20086;-73
2021/06/28 02:58:41;;;;;;;7.85;7.15;;;;;;;;;;5097234;28;20115;-73
2021/06/28 03:01:07;;;;;;;8.75;7.32;;;;;;;;;;5096606;28;20035;-73
2021/06/28 03:03:33;;;;;;;8.30;7.50;;;;;;;;;;5096434;28;20393;-73
2021/06/28 03:05:59;;;;;;;7.82;7.05;;;;;;;;;;5096271;28;20028;-73
2021/06/28 03:08:25;;;;;;;10.55;8.13;;;;;;;;;;5096967;28;20028;-73
2021/06/28 03:10:51;;;;;;;8.07;6.72;;;;;;;;;;5096627;28;20028;-73
2021/06/28 03:13:17;;;;;;;7.63;7.03;;;;;;;;;;5096436;28;20032;-73
2021/06/28 03:15:43;;;;;;;38.00;14.73;;;;;;;;;;5096283;28;20489;-74
2021/06/28 03:18:09;;;;;;;59.92;20.88;;;;;;;;;;5096693;28;20047;-74
2021/06/28 03:20:35;;;;;;;39.40;17.30;;;;;;;;;;5096026;28;20027;-74
2021/06/28 03:23:01;;;;;;;22.92;13.27;;;;;;;;;;5095841;28;20385;-74
2021/06/28 03:25:28;;;;;;;19.00;13.00;;;;;;;;;;5095326;28;20051;-74
2021/06/28 03:27:54;;;;;;;28.00;14.35;;;;;;;;;;5096217;28;20153;-74
2021/06/28 03:30:20;;;;;;;33.55;14.80;;;;;;;;;;5096414;28;20031;-74
2021/06/28 03:32:46;;;;;;;26.42;14.90;;;;;;;;;;5095850;28;20024;-73
2021/06/28 03:35:13;;;;;;;19.17;12.77;;;;;;;;;;5095345;28;20430;-74
2021/06/28 03:37:40;;;;;;;19.52;14.32;;;;;;;;;;5096769;28;20028;-74
2021/06/28 03:40:06;;;;;;;21.10;13.02;;;;;;;;;;5095931;28;20024;-74
2021/06/28 03:42:35;;;;;;;21.90;12.85;;;;;;;;;;5095988;28;20027;-74
2021/06/28 03:45:01;;;;;;;20.45;13.45;;;;;;;;;;5095468;28;20028;-74
2021/06/28 03:47:27;;;;;;;22.13;12.43;;;;;;;;;;5096080;28;20024;-73
2021/06/28 03:49:53;;;;;;;18.90;12.07;;;;;;;;;;5095151;28;20081;-74
2021/06/28 03:52:19;;;;;;;14.85;12.43;;;;;;;;;;5095783;28;20028;-74
2021/06/28 03:54:45;;;;;;;14.05;12.25;;;;;;;;;;5095505;28;20032;-73
2021/06/28 03:57:11;;;;;;;15.77;10.52;;;;;;;;;;5095582;28;20070;-73
2021/06/28 03:59:37;;;;;;;21.35;11.60;;;;;;;;;;5095518;28;20466;-74
2021/06/28 04:02:03;;;;;;;16.60;10.73;;;;;;;;;;5095647;28;20380;-74
2021/06/28 04:04:30;;;;;;;12.90;10.82;;;;;;;;;;5095272;28;20086;-74
2021/06/28 04:06:56;;;;;;;12.65;11.35;;;;;;;;;;5095592;28;20042;-73
2021/06/28 04:09:22;;;;;;;16.10;10.45;;;;;;;;;;5094979;28;20020;-73
2021/06/28 04:11:48;;;;;;;15.75;10.48;;;;;;;;;;5095874;28;20024;-73
2021/06/28 04:14:14;;;;;;;11.10;9.82;;;;;;;;;;5095217;28;20063;-73
2021/06/28 04:16:40;;;;;;;11.25;9.68;;;;;;;;;;5095158;28;20028;-73
2021/06/28 04:19:06;;;;;;;18.23;10.25;;;;;;;;;;5094988;28;20024;-74
2021/06/28 04:21:33;;;;;;;15.75;10.45;;;;;;;;;;5095334;28;20059;-73
2021/06/28 04:24:02;;;;;;;16.73;10.02;;;;;;;;;;5095512;28;20020;-74
2021/06/28 04:26:28;;;;;;;12.85;11.35;;;;;;;;;;5095305;28;20024;-74
2021/06/28 04:28:54;;;;;;;11.55;10.40;;;;;;;;;;5094886;28;20069;-73
2021/06/28 04:31:20;;;;;;;16.45;10.95;;;;;;;;;;5094541;28;20030;-74
2021/06/28 04:33:46;;;;;;;11.23;10.02;;;;;;;;;;5094591;28;20046;-74
2021/06/28 04:36:12;;;;;;;11.32;10.23;;;;;;;;;;5095282;28;20032;-74
2021/06/28 04:38:38;;;;;;;14.00;9.60;;;;;;;;;;5095092;28;20514;-73
2021/06/28 04:41:05;;;;;;;10.45;9.45;;;;;;;;;;5095080;28;20028;-74
2021/06/28 04:43:31;;;;;;;16.95;9.65;;;;;;;;;;5095192;28;20025;-74
2021/06/28 04:45:57;;;;;;;23.80;10.35;;;;;;;;;;5094888;28;20065;-74
2021/06/28 04:48:23;;;;;;;9.63;8.82;;;;;;;;;;5094911;28;20020;-73
2021/06/28 04:50:49;;;;;;;9.70;8.82;;;;;;;;;;5093956;28;20090;-71
2021/06/28 04:53:15;;;;;;;9.75;8.45;;;;;;;;;;5094598;28;20024;-69
2021/06/28 04:55:41;;;;;;;29.30;11.65;;;;;;;;;;5093555;28;20040;-71
2021/06/28 04:58:07;;;;;;;10.13;8.07;;;;;;;;;;5094538;28;20079;-70
2021/06/28 05:00:34;;;;;;;16.10;8.95;;;;;;;;;;5094271;28;20044;-70
2021/06/28 05:03:00;;;;;;;17.48;8.82;;;;;;;;;;5094193;28;20028;-70
2021/06/28 05:05:26;;;;;;;29.48;11.68;;;;;;;;;;5095086;28;20028;-71
2021/06/28 05:07:53;;;;;;;15.23;9.10;;;;;;;;;;5094734;28;20034;-70
2021/06/28 05:10:19;;;;;;;13.40;9.18;;;;;;;;;;5094652;28;20130;-71
2021/06/28 05:12:45;;;;;;;10.23;9.02;;;;;;;;;;5094938;28;20173;-69
2021/06/28 05:15:12;;;;;;;10.57;8.40;;;;;;;;;;5094264;28;20393;-70
2021/06/28 05:17:38;;;;;;;9.10;8.18;;;;;;;;;;5094214;28;20457;-71
2021/06/28 05:20:05;;;;;;;12.05;8.02;;;;;;;;;;5094420;28;20382;-71
2021/06/28 05:22:31;;;;;;;12.27;8.63;;;;;;;;;;5094673;28;20108;-71
2021/06/28 05:24:57;;;;;;;14.68;8.77;;;;;;;;;;5094419;28;20031;-71
2021/06/28 05:27:23;;;;;;;15.45;9.27;;;;;;;;;;5094572;28;20030;-70
2021/06/28 05:29:55;;;;;;;10.50;7.97;;;;;;;;;;5094656;28;20149;-70
2021/06/28 05:32:21;;;;;;;12.95;8.43;;;;;;;;;;5094329;28;20032;-71
2021/06/28 05:34:49;;;;;;;12.25;8.90;;;;;;;;;;5094162;28;20036;-71
2021/06/28 05:37:15;;;;;;;17.88;8.07;;;;;;;;;;5093508;28;20107;-71
2021/06/28 05:39:41;;;;;;;10.43;8.95;;;;;;;;;;5094345;28;20469;-70
2021/06/28 05:42:07;;;;;;;12.90;9.25;;;;;;;;;;5094576;28;20495;-71
2021/06/28 05:44:33;;;;;;;9.05;8.32;;;;;;;;;;5094276;28;20058;-71
2021/06/28 05:46:59;;;;;;;14.73;8.65;;;;;;;;;;5092795;28;20055;-71
2021/06/28 05:49:25;;;;;;;8.75;7.95;;;;;;;;;;5095055;28;20054;-71
2021/06/28 05:51:51;;;;;;;17.92;8.18;;;;;;;;;;5094613;28;20044;-72
2021/06/28 05:54:17;;;;;;;15.98;9.48;;;;;;;;;;5094285;28;20036;-74
2021/06/28 05:56:43;;;;;;;11.82;8.30;;;;;;;;;;5094462;28;20028;-73
2021/06/28 05:59:09;;;;;;;9.70;8.80;;;;;;;;;;5094074;28;20028;-81
2021/06/28 06:01:37;;;;;;;9.23;8.43;;;;;;;;;;5094167;28;20074;-80
2021/06/28 06:04:03;;;;;;;9.32;8.52;;;;;;;;;;5094693;28;20024;-80
2021/06/28 06:06:29;;;;;;;11.90;8.77;;;;;;;;;;5094223;28;20563;-81
2021/06/28 06:08:55;;;;;;;12.77;11.15;;;;;;;;;;5098445;28;20027;-80
2021/06/28 06:11:21;;;;;;;10.93;9.65;;;;;;;;;;5098128;28;20061;-78
2021/06/28 06:13:47;;;;;;;10.98;9.07;;;;;;;;;;5098000;28;20020;-77
2021/06/28 06:16:13;;;;;;;9.75;8.90;;;;;;;;;;5098248;28;20020;-78
2021/06/28 06:18:39;;;;;;;10.15;8.90;;;;;;;;;;5098242;28;20478;-77
2021/06/28 06:21:06;;;;;;;11.00;10.10;;;;;;;;;;5097907;28;20085;-77
2021/06/28 06:23:32;;;;;;;11.90;10.68;;;;;;;;;;5098063;28;20063;-76
2021/06/28 06:25:58;;;;;;;12.25;9.32;;;;;;;;;;5098109;28;20021;-77
2021/06/28 06:28:24;;;;;;;9.07;8.25;;;;;;;;;;5097790;28;20462;-77
2021/06/28 06:30:50;;;;;;;10.57;9.65;;;;;;;;;;5097457;28;20473;-77
2021/06/28 06:33:16;;;;;;;9.32;8.48;;;;;;;;;;5097699;28;20062;-76
2021/06/28 06:35:42;;;;;;;9.55;8.77;;;;;;;;;;5097979;28;20088;-78
2021/06/28 06:38:08;;;;;;;11.80;10.60;;;;;;;;;;5097777;28;20488;-77
2021/06/28 06:40:34;;;;;;;10.60;9.60;;;;;;;;;;5097747;28;20150;-78
2021/06/28 06:43:00;;;;;;;13.52;9.57;;;;;;;;;;5097458;28;20027;-78
2021/06/28 06:45:27;;;;;;;12.98;9.15;;;;;;;;;;5097594;28;20028;-78
2021/06/28 06:47:53;;;;;;;9.82;8.80;;;;;;;;;;5098112;28;20061;-77
2021/06/28 06:50:19;;;;;;;9.48;8.43;;;;;;;;;;5097532;28;20055;-77
2021/06/28 06:52:46;;;;;;;14.52;10.00;;;;;;;;;;5097515;28;20420;-77
2021/06/28 06:55:12;;;;;;;10.27;9.45;;;;;;;;;;5097171;28;20024;-77
2021/06/28 06:57:39;;;;;;;11.77;10.77;;;;;;;;;;5097801;28;20116;-77
2021/06/28 07:00:05;;;;;;;12.23;11.10;;;;;;;;;;5097359;28;20107;-77
2021/06/28 07:02:31;;;;;;;10.65;9.68;;;;;;;;;;5097288;28;20378;-77
2021/06/28 07:04:58;;;;;;;11.32;10.27;;;;;;;;;;5097137;28;20024;-76
2021/06/28 07:07:24;;;;;;;10.15;9.25;;;;;;;;;;5098021;28;20024;-77
2021/06/28 07:09:50;;;;;;;9.60;8.70;;;;;;;;;;5099835;28;20024;-75
2021/06/28 07:12:17;;;;;;;10.05;9.23;;;;;;;;;;5099839;28;20031;-76
2021/06/28 07:14:43;;;;;;;13.40;10.20;;;;;;;;;;5099673;28;20024;-78
2021/06/28 07:17:09;;;;;;;12.95;11.45;;;;;;;;;;5099857;28;20484;-77
2021/06/28 07:19:35;;;;;;;17.90;12.30;;;;;;;;;;5098996;28;20236;-77
2021/06/28 07:22:01;;;;;;;14.73;9.73;;;;;;;;;;5100486;28;20024;-77
2021/06/28 07:24:30;;;;;;;11.57;10.55;;;;;;;;;;5099686;28;20034;-77
2021/06/28 07:26:56;;;;;;;13.30;9.65;;;;;;;;;;5099271;28;20527;-74
2021/06/28 07:29:22;;;;;;;15.48;9.93;;;;;;;;;;5098382;28;20347;-76
2021/06/28 07:31:48;;;;;;;15.32;11.98;;;;;;;;;;5099347;28;20024;-72
2021/06/28 07:34:14;;;;;;;12.38;10.25;;;;;;;;;;5098767;28;20063;-73
2021/06/28 07:36:40;;;;;;;10.48;9.57;;;;;;;;;;5097896;28;20465;-71
2021/06/28 07:39:06;;;;;;;11.40;10.05;;;;;;;;;;5095958;28;20032;-73
2021/06/28 07:41:32;;;;;;;10.10;9.10;;;;;;;;;;5097358;28;20137;-72
2021/06/28 07:43:59;;;;;;;9.52;8.73;;;;;;;;;;5096475;28;20031;-72
2021/06/28 07:46:25;;;;;;;11.73;8.75;;;;;;;;;;5096434;28;20016;-72
2021/06/28 07:48:51;;;;;;;10.90;9.85;;;;;;;;;;5095844;28;20024;-72
2021/06/28 07:51:17;;;;;;;18.33;8.95;;;;;;;;;;5096247;28;20129;-73
2021/06/28 07:53:43;;;;;;;15.35;10.13;;;;;;;;;;5097081;28;20028;-71
2021/06/28 07:56:17;;;;;;;9.63;8.80;;;;;;;;;;5097052;28;20066;-72
2021/06/28 07:58:45;;;;;;;12.27;9.43;;;;;;;;;;5096056;28;20020;-73
2021/06/28 08:01:11;;;;;;;10.30;9.40;;;;;;;;;;5096032;28;20488;-73
2021/06/28 08:03:43;;;;;;;11.52;9.20;;;;;;;;;;5096719;28;20462;-73
2021/06/28 08:06:09;;;;;;;10.00;9.10;;;;;;;;;;5095491;28;20027;-73
2021/06/28 08:08:35;;;;;;;10.60;8.80;;;;;;;;;;5095625;28;20416;-73
2021/06/28 08:11:03;;;;;;;8.85;7.95;;;;;;;;;;5095882;28;20024;-73
2021/06/28 08:13:29;;;;;;;8.48;7.70;;;;;;;;;;5096330;28;20025;-72
2021/06/28 08:15:55;;;;;;;9.27;8.00;;;;;;;;;;5095843;28;20098;-72
2021/06/28 08:18:21;;;;;;;9.23;8.43;;;;;;;;;;5096382;28;20028;-72
2021/06/28 08:20:47;;;;;;;8.55;7.85;;;;;;;;;;5096527;28;20101;-74
2021/06/28 08:23:13;;;;;;;9.55;7.20;;;;;;;;;;5096546;28;20072;-72
2021/06/28 08:25:39;;;;;;;7.57;6.97;;;;;;;;;;5097537;28;20075;-73
2021/06/28 08:28:07;;;;;;;7.35;6.75;;;;;;;;;;5098011;28;20051;-71
2021/06/28 08:30:34;;;;;;;7.57;6.70;;;;;;;;;;5097309;28;20024;-72
2021/06/28 08:33:00;;;;;;;6.75;6.10;;;;;;;;;;5098115;28;20153;-72
2021/06/28 08:35:26;;;;;;;9.07;6.88;;;;;;;;;;5098204;28;20028;-72
2021/06/28 08:37:52;;;;;;;7.47;6.78;;;;;;;;;;5097964;28;20481;-72
2021/06/28 08:40:18;;;;;;;7.40;6.70;;;;;;;;;;5096656;28;20024;-73
2021/06/28 08:42:44;;;;;;;9.10;6.10;;;;;;;;;;5095504;28;20020;-73
2021/06/28 08:45:11;;;;;;;10.35;6.35;;;;;;;;;;5095244;28;20023;-74
2021/06/28 08:47:37;;;;;;;6.55;5.95;;;;;;;;;;5095960;28;20024;-74
2021/06/28 08:50:04;;;;;;;6.78;6.00;;;;;;;;;;5095074;28;20048;-75
2021/06/28 08:52:39;;;;;;;7.32;6.38;;;;;;;;;;5110069;27;1318021;-73
2021/06/28 08:55:06;;;;;;;5.85;5.35;;;;;;;;;;5132325;27;20039;-73
2021/06/28 08:57:32;;;;;;;6.70;6.10;;;;;;;;;;5133059;28;20058;-73
2021/06/28 08:59:58;;;;;;;6.78;6.28;;;;;;;;;;5133012;28;20030;-73
2021/06/28 09:02:24;;;;;;;7.35;6.57;;;;;;;;;;5133187;28;20387;-73
2021/06/28 09:04:58;;;;;;;6.18;5.60;;;;;;;;;;5132537;28;20024;-73
2021/06/28 09:07:24;;;;;;;7.85;6.18;;;;;;;;;;5132174;28;20079;-73
2021/06/28 09:09:50;;;;;;;6.85;6.18;;;;;;;;;;5132404;28;20071;-73
2021/06/28 09:12:16;;;;;;;6.43;5.75;;;;;;;;;;5132561;28;20388;-72
2021/06/28 09:14:46;;;;;;;8.65;6.55;;;;;;;;;;5132291;28;20019;-72
2021/06/28 09:17:23;;;;;;;6.35;5.75;;;;;;;;;;5132084;28;20049;-73
2021/06/28 09:20:09;;;;;;;7.20;6.53;;;;;;;;;;5131995;28;20024;-73
2021/06/28 09:22:35;;;;;;;7.82;6.20;;;;;;;;;;5132604;28;20034;-74
2021/06/28 09:25:01;;;;;;;11.52;5.88;;;;;;;;;;5118883;28;20047;-74
2021/06/28 09:27:30;;;;;;;9.50;6.75;;;;;;;;;;5111832;28;20023;-73
2021/06/28 09:29:58;;;;;;;11.95;6.45;;;;;;;;;;5111414;28;20019;-74
2021/06/28 09:32:24;;;;;;;6.70;6.07;;;;;;;;;;5111372;28;20040;-73
2021/06/28 09:34:50;;;;;;;6.00;5.43;;;;;;;;;;5110997;28;20016;-73
2021/06/28 09:37:17;;;;;;;5.97;5.47;;;;;;;;;;5111326;28;20060;-73
2021/06/28 09:39:44;;;;;;;6.15;5.55;;;;;;;;;;5111438;28;20020;-76
2021/06/28 09:42:12;;;;;;;6.03;5.45;;;;;;;;;;5111716;28;20031;-73
2021/06/28 09:44:39;;;;;;;7.45;4.88;;;;;;;;;;5111311;28;20093;-75
2021/06/28 09:47:06;;;;;;;6.57;6.05;;;;;;;;;;5111004;28;20020;-75
2021/06/28 09:49:32;;;;;;;7.43;5.30;;;;;;;;;;5110876;28;20074;-75
2021/06/28 09:51:58;;;;;;;7.43;5.93;;;;;;;;;;5110887;28;20058;-74
2021/06/28 09:54:24;;;;;;;6.85;5.53;;;;;;;;;;5111326;28;20023;-74
2021/06/28 09:56:52;;;;;;;6.88;6.30;;;;;;;;;;5110949;28;20466;-74
2021/06/28 09:59:19;;;;;;;6.68;6.05;;;;;;;;;;5110487;28;20182;-74
2021/06/28 10:01:45;;;;;;;9.13;6.95;;;;;;;;;;5110105;28;20032;-74
2021/06/28 10:04:11;;;;;;;7.35;5.68;;;;;;;;;;5095839;28;20081;-75
2021/06/28 10:06:38;;;;;;;8.70;6.32;;;;;;;;;;5096166;28;20028;-75
2021/06/28 10:09:05;;;;;;;8.00;5.80;;;;;;;;;;5092941;28;20024;-75
2021/06/28 10:11:32;;;;;;;6.03;5.45;;;;;;;;;;5095877;28;20051;-73
2021/06/28 10:14:00;;;;;;;6.15;5.55;;;;;;;;;;5092684;28;20456;-71
2021/06/28 10:16:26;;;;;;;8.63;5.93;;;;;;;;;;5095720;28;20031;-71
2021/06/28 10:18:52;;;;;;;8.45;6.68;;;;;;;;;;5095629;28;20028;-71
2021/06/28 10:21:19;;;;;;;10.30;5.82;;;;;;;;;;5095106;28;20477;-71
2021/06/28 10:23:45;;;;;;;6.22;5.35;;;;;;;;;;5095823;28;20046;-71
2021/06/28 10:26:11;;;;;;;5.47;5.00;;;;;;;;;;5095545;28;20473;-72
2021/06/28 10:28:37;;;;;;;7.43;5.35;;;;;;;;;;5095042;28;20978;-74
2021/06/28 10:31:04;;;;;;;9.23;5.35;;;;;;;;;;5096216;28;20028;-75
2021/06/28 10:33:30;;;;;;;6.20;5.68;;;;;;;;;;5096313;28;20415;-75
2021/06/28 10:36:00;;;;;;;11.77;6.25;;;;;;;;;;5095484;28;20055;-76
2021/06/28 10:38:26;;;;;;;14.05;6.22;;;;;;;;;;5092797;28;20027;-75
2021/06/28 10:40:57;;;;;;;5.47;4.97;;;;;;;;;;5095234;28;20350;-75
2021/06/28 10:43:26;;;;;;;20.83;5.05;;;;;;;;;;5092019;28;20027;-74
2021/06/28 10:45:52;;;;;;;8.77;4.65;;;;;;;;;;5094483;28;20016;-76
2021/06/28 10:48:19;;;;;;;11.48;4.82;;;;;;;;;;5094314;28;20031;-73
2021/06/28 10:51:05;;;;;;;5.30;4.90;;;;;;;;;;5094077;28;20469;-77
2021/06/28 10:53:51;;;;;;;9.43;4.65;;;;;;;;;;5094144;28;20028;-77
2021/06/28 10:56:37;;;;;;;4.93;4.50;;;;;;;;;;5093606;28;20020;-75
2021/06/28 10:59:04;;;;;;;7.07;5.15;;;;;;;;;;5093351;28;20496;-74
2021/06/28 11:01:46;;;;;;;5.35;4.85;;;;;;;;;;5094974;28;20476;-73
2021/06/28 11:04:14;;;;;;;9.10;5.00;;;;;;;;;;5091908;28;20020;-73
2021/06/28 11:07:02;;;;;;;9.20;5.13;;;;;;;;;;5094178;28;20024;-74
2021/06/28 11:09:48;;;;;;;6.30;5.57;;;;;;;;;;5089663;28;20209;-73
2021/06/28 11:12:23;;;;;;;5.10;4.70;;;;;;;;;;5091016;28;20102;-73
2021/06/28 11:14:53;;;;;;;5.57;5.18;;;;;;;;;;5093235;28;20032;-73
2021/06/28 11:17:21;;;;;;;6.18;5.40;;;;;;;;;;5093479;28;20078;-73
2021/06/28 11:19:49;;;;;;;4.90;4.50;;;;;;;;;;5094049;28;20035;-73
2021/06/28 11:22:35;;;;;;;5.22;4.82;;;;;;;;;;5093701;28;20024;-72
2021/06/28 11:25:06;;;;;;;6.15;4.78;;;;;;;;;;5090834;28;20024;-74
2021/06/28 11:27:32;;;;;;;5.00;4.60;;;;;;;;;;5090679;28;20416;-74
2021/06/28 11:29:58;;;;;;;8.90;4.80;;;;;;;;;;5093327;28;20058;-74
2021/06/28 11:32:25;;;;;;;9.93;4.82;;;;;;;;;;5094040;28;20028;-73
2021/06/28 11:34:51;;;;;;;5.50;4.95;;;;;;;;;;5093596;28;20385;-74
2021/06/28 11:37:18;;;;;;;19.48;6.95;;;;;;;;;;5093528;28;20385;-75
2021/06/28 11:39:54;;;;;;;7.07;4.85;;;;;;;;;;5093611;28;20021;-74
2021/06/28 11:42:26;;;;;;;6.90;4.80;;;;;;;;;;5091837;28;20022;-73
2021/06/28 11:44:53;;;;;;;6.13;4.72;;;;;;;;;;5074388;28;20124;-73
2021/06/28 11:47:39;;;;;;;7.95;5.30;;;;;;;;;;5074483;28;20028;-74
2021/06/28 11:50:25;;;;;;;6.85;4.72;;;;;;;;;;5093550;28;20477;-73
2021/06/28 11:52:52;;;;;;;5.45;5.03;;;;;;;;;;5093018;28;20032;-72
2021/06/28 11:55:18;;;;;;;5.40;4.90;;;;;;;;;;5093099;28;20048;-74
2021/06/28 11:57:51;;;;;;;5.43;4.90;;;;;;;;;;5093262;28;20469;-73
2021/06/28 12:00:18;;;;;;;4.97;4.53;;;;;;;;;;5090854;28;20046;-72
2021/06/28 12:02:44;;;;;;;5.95;5.35;;;;;;;;;;5093127;28;20069;-75
2021/06/28 12:05:10;;;;;;;5.63;5.13;;;;;;;;;;5092984;28;20024;-74
2021/06/28 12:07:37;;;;;;;8.70;4.93;;;;;;;;;;5090984;28;20030;-74
2021/06/28 12:10:03;;;;;;;5.18;4.78;;;;;;;;;;5093471;28;20019;-74
2021/06/28 12:12:29;;;;;;;4.93;4.50;;;;;;;;;;5093158;28;20040;-73
2021/06/28 12:14:56;;;;;;;11.32;4.97;;;;;;;;;;5091026;28;20012;-75
2021/06/28 12:17:23;;;;;;;6.30;5.10;;;;;;;;;;5093090;28;20024;-71
2021/06/28 12:19:51;;;;;;;17.20;4.68;;;;;;;;;;5093629;28;20192;-73
2021/06/28 12:22:18;;;;;;;10.07;5.18;;;;;;;;;;5094275;28;20031;-75
2021/06/28 12:24:45;;;;;;;5.45;4.63;;;;;;;;;;5094344;28;20079;-76
2021/06/28 12:27:13;;;;;;;5.95;4.70;;;;;;;;;;5096912;28;20495;-77
2021/06/28 12:29:41;;;;;;;7.10;4.95;;;;;;;;;;5097189;28;20258;-74
2021/06/28 12:32:11;;;;;;;10.40;5.25;;;;;;;;;;5093953;28;20028;-73
2021/06/28 12:34:37;;;;;;;9.35;4.45;;;;;;;;;;5094032;28;20028;-75
2021/06/28 12:37:04;;;;;;;6.55;4.63;;;;;;;;;;5094004;28;20024;-76
2021/06/28 12:39:30;;;;;;;14.48;5.50;;;;;;;;;;5093854;28;20020;-75
2021/06/28 12:42:12;;;;;;;13.50;7.00;;;;;;;;;;5094320;28;20020;-76
2021/06/28 12:44:38;;;;;;;8.88;5.78;;;;;;;;;;5094389;28;20028;-75
2021/06/28 12:47:05;;;;;;;9.43;5.45;;;;;;;;;;5094133;28;20346;-75
2021/06/28 12:49:31;;;;;;;17.30;7.10;;;;;;;;;;5094921;28;20039;-75
2021/06/28 12:52:17;;;;;;;13.82;6.60;;;;;;;;;;5093525;28;20139;-76
2021/06/28 12:54:43;;;;;;;14.25;6.57;;;;;;;;;;5092966;28;20077;-75
2021/06/28 12:57:23;;;;;;;26.88;8.98;;;;;;;;;;5093935;28;20028;-74
2021/06/28 12:59:49;;;;;;;14.43;7.53;;;;;;;;;;5094208;28;20032;-76
2021/06/28 13:02:27;;;;;;;17.88;8.43;;;;;;;;;;5094317;28;20423;-76
2021/06/28 13:05:09;;;;;;;12.93;7.00;;;;;;;;;;5094337;28;20446;-76
2021/06/28 13:07:35;;;;;;;16.23;8.32;;;;;;;;;;5094008;28;20067;-78
2021/06/28 13:10:01;;;;;;;30.65;9.70;;;;;;;;;;5093831;28;20047;-77
2021/06/28 13:12:27;;;;;;;27.40;10.85;;;;;;;;;;5094093;28;20512;-79
2021/06/28 13:15:18;;;;;;;28.98;11.73;;;;;;;;;;5094387;28;20081;-79
2021/06/28 13:17:44;;;;;;;41.78;11.65;;;;;;;;;;5093364;28;20016;-79
2021/06/28 13:20:26;;;;;;;28.50;10.73;;;;;;;;;;5094317;28;20491;-78
2021/06/28 13:22:52;;;;;;;18.38;10.00;;;;;;;;;;5094134;28;20032;-78
2021/06/28 13:25:18;;;;;;;31.75;10.52;;;;;;;;;;5093718;28;20020;-79
2021/06/28 13:27:48;;;;;;;30.88;11.30;;;;;;;;;;5094541;28;20021;-80
2021/06/28 13:30:18;;;;;;;41.15;14.82;;;;;;;;;;5094088;28;20056;-78
2021/06/28 13:32:44;;;;;;;33.20;15.20;;;;;;;;;;5094254;28;20028;-78
2021/06/28 13:35:10;;;;;;;44.70;14.85;;;;;;;;;;5093290;28;20062;-78
2021/06/28 13:37:39;;;;;;;25.27;11.93;;;;;;;;;;5094991;28;20362;-78
2021/06/28 13:40:14;;;;;;;42.30;16.38;;;;;;;;;;5097869;28;20028;-78
2021/06/28 13:42:40;;;;;;;30.58;13.52;;;;;;;;;;5097821;28;20032;-79
2021/06/28 13:45:15;;;;;;;29.65;14.00;;;;;;;;;;5097437;28;20031;-78
2021/06/28 13:48:01;;;;;;;32.05;12.63;;;;;;;;;;5097530;28;20024;-78
2021/06/28 13:50:29;;;;;;;28.88;13.57;;;;;;;;;;5095981;28;20462;-78
2021/06/28 13:52:55;;;;;;;26.77;13.55;;;;;;;;;;5097875;28;20024;-78
2021/06/28 13:55:22;;;;;;;41.17;16.65;;;;;;;;;;5097006;28;20434;-77
2021/06/28 13:57:49;;;;;;;39.15;14.18;;;;;;;;;;5097418;28;20035;-76
2021/06/28 14:00:16;;;;;;;23.02;12.13;;;;;;;;;;5097270;28;20475;-78
2021/06/28 14:02:42;;;;;;;30.30;13.65;;;;;;;;;;5097106;28;20488;-78
2021/06/28 14:05:08;;;;;;;33.55;12.73;;;;;;;;;;5096883;28;20078;-80
2021/06/28 14:07:34;;;;;;;25.88;13.63;;;;;;;;;;5097420;28;20024;-80
2021/06/28 14:10:00;;;;;;;32.20;13.05;;;;;;;;;;5096984;28;20111;-81
2021/06/28 14:12:27;;;;;;;28.80;13.27;;;;;;;;;;5096760;28;20516;-81
2021/06/28 14:14:53;;;;;;;25.83;13.07;;;;;;;;;;5096653;28;20031;-80
2021/06/28 14:17:19;;;;;;;29.70;13.65;;;;;;;;;;5097043;28;20028;-77
2021/06/28 14:19:45;;;;;;;30.33;14.43;;;;;;;;;;5097105;28;20054;-78
2021/06/28 14:22:11;;;;;;;27.48;11.93;;;;;;;;;;5097039;28;20028;-77
2021/06/28 14:24:37;;;;;;;25.02;12.98;;;;;;;;;;5096587;28;20028;-78
2021/06/28 14:27:03;;;;;;;24.75;11.40;;;;;;;;;;5096656;28;20423;-77
2021/06/28 14:29:33;;;;;;;30.98;12.75;;;;;;;;;;5096111;28;20428;-77
2021/06/28 14:31:59;;;;;;;23.20;11.73;;;;;;;;;;5096548;28;20051;-78
2021/06/28 14:34:26;;;;;;;31.25;12.30;;;;;;;;;;5096625;28;20031;-78